createdAt,value
2018-08-10T00:00:54.364Z,0.00
2018-08-10T00:01:54.391Z,0.00
2018-08-10T00:02:54.406Z,0.00
2018-08-10T00:03:54.428Z,0.00
2018-08-10T00:04:54.448Z,0.00
2018-08-10T00:05:54.502Z,0.00
2018-08-10T00:06:54.491Z,0.00
2018-08-10T00:07:54.517Z,0.00
2018-08-10T00:08:54.547Z,0.00
2018-08-10T00:09:54.563Z,0.00
2018-08-10T00:10:54.582Z,0.00
2018-08-10T00:11:54.601Z,0.00
2018-08-10T00:12:54.620Z,0.00
2018-08-10T00:13:54.683Z,0.00
2018-08-10T00:14:54.670Z,0.00
2018-08-10T00:15:54.689Z,0.00
2018-08-10T00:16:54.725Z,0.00
2018-08-10T00:17:54.727Z,0.00
2018-08-10T00:18:54.749Z,0.00
2018-08-10T00:19:54.771Z,0.00
2018-08-10T00:20:54.793Z,0.00
2018-08-10T00:21:54.815Z,0.00
2018-08-10T00:22:54.833Z,0.00
2018-08-10T00:23:54.853Z,0.00
2018-08-10T00:24:54.874Z,0.00
2018-08-10T00:25:54.897Z,0.00
2018-08-10T00:26:54.918Z,0.00
2018-08-10T00:27:54.940Z,0.00
2018-08-10T00:28:54.963Z,0.00
2018-08-10T00:29:54.981Z,0.00
2018-08-10T00:30:55.008Z,0.00
2018-08-10T00:31:55.028Z,0.00
2018-08-10T00:32:55.046Z,0.00
2018-08-10T00:33:55.066Z,0.00
2018-08-10T00:34:55.088Z,0.00
2018-08-10T00:35:55.230Z,0.00
2018-08-10T00:36:55.130Z,0.00
2018-08-10T00:37:55.150Z,0.00
2018-08-10T00:38:55.175Z,0.00
2018-08-10T00:39:55.192Z,0.00
2018-08-10T00:40:55.214Z,0.00
2018-08-10T00:41:55.241Z,0.00
2018-08-10T00:42:55.260Z,0.00
2018-08-10T00:43:55.275Z,0.00
2018-08-10T00:44:55.299Z,0.00
2018-08-10T00:45:55.321Z,0.00
2018-08-10T00:46:55.342Z,0.00
2018-08-10T00:47:55.365Z,0.00
2018-08-10T00:48:55.382Z,0.00
2018-08-10T00:49:55.405Z,0.00
2018-08-10T00:50:55.427Z,0.00
2018-08-10T00:51:55.447Z,0.00
2018-08-10T00:52:55.468Z,0.00
2018-08-10T00:53:55.488Z,0.00
2018-08-10T00:54:55.509Z,0.00
2018-08-10T00:55:55.540Z,0.00
2018-08-10T00:56:55.553Z,0.00
2018-08-10T00:57:55.573Z,0.00
2018-08-10T00:58:55.593Z,0.00
2018-08-10T00:59:55.619Z,0.00
2018-08-10T01:00:55.635Z,0.00
2018-08-10T01:01:55.656Z,0.00
2018-08-10T01:02:55.679Z,0.00
2018-08-10T01:03:55.700Z,0.00
2018-08-10T01:04:55.720Z,0.00
2018-08-10T01:05:55.741Z,0.00
2018-08-10T01:06:55.764Z,0.00
2018-08-10T01:07:55.781Z,0.00
2018-08-10T01:08:55.846Z,0.00
2018-08-10T01:09:55.827Z,0.00
2018-08-10T01:10:55.846Z,0.00
2018-08-10T01:11:55.869Z,0.00
2018-08-10T01:12:55.888Z,0.00
2018-08-10T01:13:55.912Z,0.00
2018-08-10T01:14:55.932Z,0.00
2018-08-10T01:15:55.949Z,0.00
2018-08-10T01:16:55.976Z,0.00
2018-08-10T01:17:55.993Z,0.00
2018-08-10T01:18:56.015Z,0.00
2018-08-10T01:19:56.037Z,0.00
2018-08-10T01:20:56.065Z,0.00
2018-08-10T01:21:56.078Z,0.00
2018-08-10T01:22:56.098Z,0.00
2018-08-10T01:23:56.123Z,0.00
2018-08-10T01:24:56.143Z,0.00
2018-08-10T01:25:56.163Z,0.00
2018-08-10T01:26:56.181Z,0.00
2018-08-10T01:27:56.262Z,0.00
2018-08-10T01:28:56.332Z,0.00
2018-08-10T01:29:56.263Z,0.00
2018-08-10T01:30:56.272Z,0.00
2018-08-10T01:31:56.285Z,0.00
2018-08-10T01:32:56.304Z,0.00
2018-08-10T01:33:56.324Z,0.00
2018-08-10T01:34:56.350Z,0.00
2018-08-10T01:35:56.368Z,0.00
2018-08-10T01:36:56.389Z,0.00
2018-08-10T01:37:56.415Z,0.00
2018-08-10T01:38:56.436Z,0.00
2018-08-10T01:39:56.451Z,0.00
2018-08-10T01:40:56.473Z,0.00
2018-08-10T01:41:56.490Z,0.00
2018-08-10T01:42:56.516Z,0.00
2018-08-10T01:43:56.533Z,0.00
2018-08-10T01:44:56.561Z,0.00
2018-08-10T01:45:56.797Z,0.00
2018-08-10T01:46:56.594Z,0.00
2018-08-10T01:47:56.621Z,0.00
2018-08-10T01:48:56.637Z,0.00
2018-08-10T01:49:56.656Z,0.00
2018-08-10T01:50:56.678Z,0.00
2018-08-10T01:51:56.700Z,0.00
2018-08-10T01:52:56.730Z,0.00
2018-08-10T01:53:56.738Z,0.00
2018-08-10T01:54:56.761Z,0.00
2018-08-10T01:55:56.780Z,0.00
2018-08-10T01:56:56.800Z,0.00
2018-08-10T01:57:56.821Z,0.00
2018-08-10T01:58:56.843Z,0.00
2018-08-10T01:59:56.863Z,0.00
2018-08-10T02:00:56.883Z,0.00
2018-08-10T02:01:56.900Z,0.00
2018-08-10T02:02:56.922Z,0.00
2018-08-10T02:03:56.941Z,0.00
2018-08-10T02:04:56.965Z,0.00
2018-08-10T02:05:56.983Z,0.00
2018-08-10T02:06:57.004Z,0.00
2018-08-10T02:07:57.024Z,0.00
2018-08-10T02:08:57.047Z,0.00
2018-08-10T02:09:57.067Z,0.00
2018-08-10T02:10:57.116Z,0.00
2018-08-10T02:11:57.109Z,0.00
2018-08-10T02:12:57.128Z,0.00
2018-08-10T02:13:57.152Z,0.00
2018-08-10T02:14:57.296Z,0.00
2018-08-10T02:15:57.187Z,0.00
2018-08-10T02:16:57.207Z,0.00
2018-08-10T02:17:57.229Z,0.00
2018-08-10T02:18:57.255Z,0.00
2018-08-10T02:19:57.268Z,0.00
2018-08-10T02:20:57.298Z,0.00
2018-08-10T02:21:57.309Z,0.00
2018-08-10T02:22:57.332Z,0.00
2018-08-10T02:23:57.356Z,0.00
2018-08-10T02:24:57.372Z,0.00
2018-08-10T02:25:57.406Z,0.00
2018-08-10T02:26:57.413Z,0.00
2018-08-10T02:27:57.435Z,0.00
2018-08-10T02:28:57.455Z,0.00
2018-08-10T02:29:57.472Z,0.00
2018-08-10T02:30:57.500Z,0.00
2018-08-10T02:31:57.513Z,0.00
2018-08-10T02:32:57.533Z,0.00
2018-08-10T02:33:57.555Z,0.00
2018-08-10T02:34:57.576Z,0.00
2018-08-10T02:35:57.616Z,0.00
2018-08-10T02:36:57.616Z,0.00
2018-08-10T02:37:57.635Z,0.00
2018-08-10T02:38:57.656Z,0.00
2018-08-10T02:39:57.680Z,0.00
2018-08-10T02:40:57.700Z,0.00
2018-08-10T02:41:57.719Z,0.00
2018-08-10T02:42:57.735Z,0.00
2018-08-10T02:43:57.755Z,0.00
2018-08-10T02:44:57.779Z,0.00
2018-08-10T02:45:57.799Z,0.00
2018-08-10T02:46:57.817Z,0.00
2018-08-10T02:47:57.848Z,0.00
2018-08-10T02:48:57.855Z,0.00
2018-08-10T02:49:57.878Z,0.00
2018-08-10T02:50:57.895Z,0.00
2018-08-10T02:51:57.921Z,0.00
2018-08-10T02:52:57.943Z,0.00
2018-08-10T02:53:57.958Z,0.00
2018-08-10T02:54:57.977Z,0.00
2018-08-10T02:55:57.995Z,0.00
2018-08-10T02:56:58.015Z,0.00
2018-08-10T02:57:58.039Z,0.00
2018-08-10T02:58:58.057Z,0.00
2018-08-10T02:59:58.076Z,0.00
2018-08-10T03:00:58.094Z,0.00
2018-08-10T03:01:58.114Z,0.00
2018-08-10T03:02:58.136Z,0.00
2018-08-10T03:03:58.159Z,0.00
2018-08-10T03:04:58.180Z,0.00
2018-08-10T03:05:58.201Z,0.00
2018-08-10T03:06:58.222Z,0.00
2018-08-10T03:07:58.239Z,0.00
2018-08-10T03:08:58.277Z,0.00
2018-08-10T03:09:58.279Z,0.00
2018-08-10T03:10:58.296Z,0.00
2018-08-10T03:11:58.317Z,0.00
2018-08-10T03:12:58.336Z,0.00
2018-08-10T03:13:58.355Z,0.00
2018-08-10T03:14:58.375Z,0.00
2018-08-10T03:15:58.398Z,0.00
2018-08-10T03:16:58.417Z,0.00
2018-08-10T03:17:58.437Z,0.00
2018-08-10T03:18:58.465Z,0.00
2018-08-10T03:19:58.475Z,0.00
2018-08-10T03:20:58.491Z,0.00
2018-08-10T03:21:58.586Z,0.00
2018-08-10T03:22:58.534Z,0.00
2018-08-10T03:23:58.556Z,0.00
2018-08-10T03:24:58.572Z,0.00
2018-08-10T03:25:58.592Z,0.00
2018-08-10T03:26:58.612Z,0.00
2018-08-10T03:27:58.635Z,0.00
2018-08-10T03:28:58.668Z,0.00
2018-08-10T03:29:58.687Z,0.00
2018-08-10T03:30:58.695Z,0.00
2018-08-10T03:31:58.713Z,0.00
2018-08-10T03:32:58.734Z,0.00
2018-08-10T03:33:58.751Z,0.00
2018-08-10T03:34:58.772Z,0.00
2018-08-10T03:35:58.793Z,0.00
2018-08-10T03:36:58.810Z,0.00
2018-08-10T03:37:58.829Z,0.00
2018-08-10T03:38:58.848Z,0.00
2018-08-10T03:39:58.873Z,0.00
2018-08-10T03:40:58.890Z,0.00
2018-08-10T03:41:58.912Z,0.00
2018-08-10T03:42:58.929Z,0.00
2018-08-10T03:43:58.985Z,0.00
2018-08-10T03:44:58.969Z,5.63
2018-08-10T03:45:58.987Z,5.63
2018-08-10T03:46:59.011Z,5.63
2018-08-10T03:47:59.031Z,5.63
2018-08-10T03:48:59.047Z,5.63
2018-08-10T03:49:59.068Z,5.63
2018-08-10T03:50:59.090Z,5.63
2018-08-10T03:51:59.112Z,5.63
2018-08-10T03:52:59.137Z,5.63
2018-08-10T03:53:59.151Z,5.63
2018-08-10T03:54:59.169Z,11.25
2018-08-10T03:55:59.189Z,11.25
2018-08-10T03:56:59.208Z,11.25
2018-08-10T03:57:59.229Z,11.25
2018-08-10T03:58:59.247Z,16.88
2018-08-10T03:59:59.269Z,16.88
2018-08-10T04:00:59.289Z,16.88
2018-08-10T04:01:59.311Z,22.50
2018-08-10T04:02:59.328Z,22.50
2018-08-10T04:03:59.348Z,22.50
2018-08-10T04:04:59.367Z,28.13
2018-08-10T04:05:59.420Z,28.13
2018-08-10T04:06:59.408Z,28.13
2018-08-10T04:07:59.428Z,33.75
2018-08-10T04:08:59.450Z,33.75
2018-08-10T04:09:59.465Z,33.75
2018-08-10T04:10:59.487Z,33.75
2018-08-10T04:11:59.508Z,33.75
2018-08-10T04:12:59.528Z,28.13
2018-08-10T04:13:59.547Z,28.13
2018-08-10T04:14:59.569Z,28.13
2018-08-10T04:15:59.590Z,22.50
2018-08-10T04:16:59.606Z,22.50
2018-08-10T04:17:59.626Z,28.13
2018-08-10T04:18:59.648Z,28.13
2018-08-10T04:19:59.671Z,28.13
2018-08-10T04:20:59.689Z,33.75
2018-08-10T04:21:59.710Z,33.75
2018-08-10T04:22:59.734Z,39.38
2018-08-10T04:23:59.752Z,39.38
2018-08-10T04:24:59.768Z,45.00
2018-08-10T04:25:59.785Z,50.63
2018-08-10T04:26:59.809Z,50.63
2018-08-10T04:27:59.829Z,50.63
2018-08-10T04:28:59.847Z,45.00
2018-08-10T04:29:59.868Z,50.63
2018-08-10T04:30:59.898Z,50.63
2018-08-10T04:32:00.045Z,50.63
2018-08-10T04:32:59.929Z,56.25
2018-08-10T04:33:59.948Z,56.25
2018-08-10T04:34:59.969Z,56.25
2018-08-10T04:35:59.987Z,56.25
2018-08-10T04:37:00.010Z,56.25
2018-08-10T04:38:00.032Z,61.88
2018-08-10T04:39:00.052Z,61.88
2018-08-10T04:40:00.069Z,56.25
2018-08-10T04:41:00.092Z,56.25
2018-08-10T04:42:00.112Z,61.88
2018-08-10T04:43:00.131Z,61.88
2018-08-10T04:44:00.152Z,73.13
2018-08-10T04:45:00.171Z,90.00
2018-08-10T04:46:00.186Z,106.88
2018-08-10T04:47:00.219Z,135.00
2018-08-10T04:48:00.230Z,168.75
2018-08-10T04:49:00.251Z,196.88
2018-08-10T04:50:00.278Z,225.00
2018-08-10T04:51:00.310Z,230.63
2018-08-10T04:52:00.312Z,247.50
2018-08-10T04:53:00.332Z,258.75
2018-08-10T04:54:00.361Z,264.38
2018-08-10T04:55:00.397Z,270.00
2018-08-10T04:56:00.392Z,281.25
2018-08-10T04:57:00.410Z,275.63
2018-08-10T04:58:00.445Z,270.00
2018-08-10T04:59:00.452Z,258.75
2018-08-10T05:00:00.473Z,247.50
2018-08-10T05:01:00.500Z,247.50
2018-08-10T05:02:00.518Z,253.13
2018-08-10T05:03:00.535Z,270.00
2018-08-10T05:04:00.556Z,270.00
2018-08-10T05:05:00.576Z,275.63
2018-08-10T05:06:00.597Z,286.88
2018-08-10T05:07:00.623Z,315.00
2018-08-10T05:08:00.646Z,326.25
2018-08-10T05:09:00.663Z,309.38
2018-08-10T05:10:00.758Z,309.38
2018-08-10T05:11:00.700Z,315.00
2018-08-10T05:12:00.730Z,326.25
2018-08-10T05:13:00.744Z,343.13
2018-08-10T05:14:00.762Z,376.88
2018-08-10T05:15:00.787Z,393.75
2018-08-10T05:16:00.806Z,393.75
2018-08-10T05:17:00.861Z,405.00
2018-08-10T05:18:00.849Z,410.63
2018-08-10T05:19:00.878Z,450.00
2018-08-10T05:20:00.889Z,1411.88
2018-08-10T05:21:00.909Z,433.13
2018-08-10T05:22:00.936Z,787.50
2018-08-10T05:23:00.954Z,466.88
2018-08-10T05:24:00.973Z,405.00
2018-08-10T05:25:00.998Z,635.63
2018-08-10T05:26:01.039Z,562.50
2018-08-10T05:27:01.062Z,450.00
2018-08-10T05:28:01.067Z,1389.38
2018-08-10T05:29:01.086Z,399.38
2018-08-10T05:30:01.107Z,393.75
2018-08-10T05:31:01.144Z,427.50
2018-08-10T05:32:01.151Z,461.25
2018-08-10T05:33:01.205Z,455.63
2018-08-10T05:34:01.197Z,461.25
2018-08-10T05:35:01.220Z,624.38
2018-08-10T05:36:01.241Z,348.75
2018-08-10T05:37:01.258Z,292.50
2018-08-10T05:38:01.286Z,331.88
2018-08-10T05:39:01.335Z,382.50
2018-08-10T05:40:01.327Z,405.00
2018-08-10T05:41:01.358Z,433.13
2018-08-10T05:42:01.372Z,472.50
2018-08-10T05:43:01.394Z,1496.25
2018-08-10T05:44:01.453Z,1400.63
2018-08-10T05:45:01.437Z,1445.63
2018-08-10T05:46:01.457Z,1389.38
2018-08-10T05:47:01.529Z,1096.88
2018-08-10T05:48:01.519Z,658.13
2018-08-10T05:49:01.527Z,1496.25
2018-08-10T05:50:01.551Z,1383.75
2018-08-10T05:51:01.660Z,405.00
2018-08-10T05:52:01.596Z,354.38
2018-08-10T05:53:01.632Z,1164.38
2018-08-10T05:54:01.645Z,534.38
2018-08-10T05:55:01.664Z,1620.00
2018-08-10T05:56:01.691Z,1186.88
2018-08-10T05:57:01.713Z,1473.75
2018-08-10T05:58:01.759Z,1794.38
2018-08-10T05:59:01.771Z,1704.38
2018-08-10T06:00:01.786Z,1676.25
2018-08-10T06:01:01.814Z,1591.88
2018-08-10T06:02:01.854Z,1434.38
2018-08-10T06:03:01.858Z,450.00
2018-08-10T06:04:01.981Z,399.38
2018-08-10T06:05:01.908Z,461.25
2018-08-10T06:06:01.937Z,1248.75
2018-08-10T06:07:01.964Z,1805.63
2018-08-10T06:08:01.988Z,1215.00
2018-08-10T06:09:02.013Z,1181.25
2018-08-10T06:10:02.135Z,450.00
2018-08-10T06:11:02.057Z,1552.50
2018-08-10T06:12:02.083Z,1327.50
2018-08-10T06:13:02.110Z,1811.25
2018-08-10T06:14:02.128Z,675.00
2018-08-10T06:15:02.156Z,613.13
2018-08-10T06:16:02.182Z,495.00
2018-08-10T06:17:02.204Z,371.25
2018-08-10T06:18:02.231Z,326.25
2018-08-10T06:19:02.252Z,331.88
2018-08-10T06:20:02.330Z,326.25
2018-08-10T06:21:02.304Z,371.25
2018-08-10T06:22:02.339Z,461.25
2018-08-10T06:23:02.358Z,511.88
2018-08-10T06:24:02.383Z,1693.13
2018-08-10T06:25:02.421Z,545.63
2018-08-10T06:26:02.425Z,562.50
2018-08-10T06:27:02.446Z,489.38
2018-08-10T06:28:02.469Z,444.38
2018-08-10T06:29:02.495Z,523.13
2018-08-10T06:30:02.520Z,438.75
2018-08-10T06:31:02.542Z,478.13
2018-08-10T06:32:02.570Z,466.88
2018-08-10T06:33:02.586Z,371.25
2018-08-10T06:34:02.749Z,337.50
2018-08-10T06:35:02.701Z,236.25
2018-08-10T06:36:02.656Z,236.25
2018-08-10T06:37:02.677Z,258.75
2018-08-10T06:38:02.705Z,281.25
2018-08-10T06:39:02.728Z,292.50
2018-08-10T06:40:02.748Z,275.63
2018-08-10T06:41:02.770Z,275.63
2018-08-10T06:42:02.792Z,253.13
2018-08-10T06:43:02.816Z,270.00
2018-08-10T06:44:02.854Z,281.25
2018-08-10T06:45:03.020Z,309.38
2018-08-10T06:46:02.879Z,343.13
2018-08-10T06:47:02.929Z,337.50
2018-08-10T06:48:02.927Z,309.38
2018-08-10T06:49:02.947Z,320.63
2018-08-10T06:50:02.991Z,315.00
2018-08-10T06:51:03.046Z,315.00
2018-08-10T06:52:03.031Z,298.13
2018-08-10T06:53:03.169Z,292.50
2018-08-10T06:54:03.060Z,247.50
2018-08-10T06:55:03.608Z,275.63
2018-08-10T06:56:03.122Z,281.25
2018-08-10T06:57:03.145Z,264.38
2018-08-10T06:58:03.148Z,275.63
2018-08-10T06:59:03.165Z,303.75
2018-08-10T07:00:03.227Z,343.13
2018-08-10T07:01:03.244Z,382.50
2018-08-10T07:02:03.234Z,405.00
2018-08-10T07:03:03.254Z,461.25
2018-08-10T07:04:03.274Z,478.13
2018-08-10T07:05:03.292Z,511.88
2018-08-10T07:06:03.344Z,551.25
2018-08-10T07:07:03.341Z,978.75
2018-08-10T07:08:03.367Z,697.50
2018-08-10T07:09:03.385Z,2700.00
2018-08-10T07:10:03.415Z,871.88
2018-08-10T07:11:03.474Z,2559.38
2018-08-10T07:12:03.449Z,2565.00
2018-08-10T07:13:03.558Z,2610.00
2018-08-10T07:14:03.497Z,2452.50
2018-08-10T07:15:03.525Z,2497.50
2018-08-10T07:16:03.541Z,2604.38
2018-08-10T07:17:03.566Z,1704.38
2018-08-10T07:18:03.589Z,2475.00
2018-08-10T07:19:03.616Z,1102.50
2018-08-10T07:20:03.646Z,922.50
2018-08-10T07:21:03.665Z,1125.00
2018-08-10T07:22:03.697Z,680.63
2018-08-10T07:23:03.716Z,821.25
2018-08-10T07:24:03.738Z,646.88
2018-08-10T07:25:03.761Z,540.00
2018-08-10T07:26:03.789Z,506.25
2018-08-10T07:27:03.825Z,461.25
2018-08-10T07:28:03.842Z,450.00
2018-08-10T07:29:03.863Z,455.63
2018-08-10T07:30:03.890Z,461.25
2018-08-10T07:31:04.046Z,444.38
2018-08-10T07:32:03.939Z,483.75
2018-08-10T07:33:03.969Z,579.38
2018-08-10T07:34:04.011Z,1338.75
2018-08-10T07:35:04.011Z,652.50
2018-08-10T07:36:04.060Z,618.75
2018-08-10T07:37:04.062Z,601.88
2018-08-10T07:38:04.083Z,562.50
2018-08-10T07:39:04.109Z,511.88
2018-08-10T07:40:04.140Z,506.25
2018-08-10T07:41:04.168Z,455.63
2018-08-10T07:42:04.185Z,388.13
2018-08-10T07:43:04.341Z,354.38
2018-08-10T07:44:04.229Z,365.63
2018-08-10T07:45:04.250Z,416.25
2018-08-10T07:46:04.273Z,517.50
2018-08-10T07:47:04.298Z,1552.50
2018-08-10T07:48:04.324Z,2396.25
2018-08-10T07:49:04.346Z,2497.50
2018-08-10T07:50:04.368Z,2508.75
2018-08-10T07:51:04.392Z,2430.00
2018-08-10T07:52:04.429Z,2396.25
2018-08-10T07:53:04.443Z,2514.38
2018-08-10T07:54:04.468Z,2491.88
2018-08-10T07:55:04.488Z,2396.25
2018-08-10T07:56:04.516Z,2598.75
2018-08-10T07:57:04.540Z,2604.38
2018-08-10T07:58:04.565Z,973.13
2018-08-10T07:59:04.654Z,877.50
2018-08-10T08:00:04.644Z,545.63
2018-08-10T08:01:04.639Z,489.38
2018-08-10T08:02:04.666Z,444.38
2018-08-10T08:03:04.738Z,556.88
2018-08-10T08:04:04.719Z,545.63
2018-08-10T08:05:04.742Z,601.88
2018-08-10T08:06:04.772Z,1085.63
2018-08-10T08:07:04.844Z,658.13
2018-08-10T08:08:04.819Z,2385.00
2018-08-10T08:09:04.844Z,2160.00
2018-08-10T08:10:04.886Z,2463.75
2018-08-10T08:11:04.901Z,2497.50
2018-08-10T08:12:04.959Z,2328.75
2018-08-10T08:13:04.944Z,2193.75
2018-08-10T08:14:04.967Z,1845.00
2018-08-10T08:15:04.998Z,573.75
2018-08-10T08:16:05.024Z,438.75
2018-08-10T08:17:05.045Z,2058.75
2018-08-10T08:18:05.153Z,888.75
2018-08-10T08:19:05.104Z,2098.13
2018-08-10T08:20:05.127Z,1963.13
2018-08-10T08:21:05.148Z,652.50
2018-08-10T08:22:05.177Z,2368.13
2018-08-10T08:23:05.204Z,2137.50
2018-08-10T08:24:05.227Z,984.38
2018-08-10T08:25:05.253Z,2424.38
2018-08-10T08:26:05.315Z,2340.00
2018-08-10T08:27:05.322Z,2334.38
2018-08-10T08:28:05.332Z,607.50
2018-08-10T08:29:05.363Z,596.25
2018-08-10T08:30:05.383Z,573.75
2018-08-10T08:31:05.407Z,2351.25
2018-08-10T08:32:05.435Z,2143.13
2018-08-10T08:33:05.472Z,1535.63
2018-08-10T08:34:05.484Z,1158.75
2018-08-10T08:35:05.584Z,1057.50
2018-08-10T08:36:05.540Z,855.00
2018-08-10T08:37:05.565Z,624.38
2018-08-10T08:38:05.590Z,613.13
2018-08-10T08:39:05.627Z,573.75
2018-08-10T08:40:05.640Z,556.88
2018-08-10T08:41:05.726Z,517.50
2018-08-10T08:42:05.690Z,517.50
2018-08-10T08:43:05.715Z,551.25
2018-08-10T08:44:05.738Z,562.50
2018-08-10T08:45:05.763Z,551.25
2018-08-10T08:46:06.015Z,568.13
2018-08-10T08:47:05.815Z,556.88
2018-08-10T08:48:05.837Z,489.38
2018-08-10T08:49:05.863Z,483.75
2018-08-10T08:50:05.927Z,466.88
2018-08-10T08:51:05.910Z,495.00
2018-08-10T08:52:05.935Z,489.38
2018-08-10T08:53:05.958Z,585.00
2018-08-10T08:54:05.990Z,607.50
2018-08-10T08:55:06.008Z,590.63
2018-08-10T08:56:06.028Z,579.38
2018-08-10T08:57:06.067Z,551.25
2018-08-10T08:58:06.078Z,534.38
2018-08-10T08:59:06.103Z,495.00
2018-08-10T09:00:06.126Z,556.88
2018-08-10T09:01:06.151Z,562.50
2018-08-10T09:02:06.187Z,618.75
2018-08-10T09:03:06.199Z,669.38
2018-08-10T09:04:06.221Z,646.88
2018-08-10T09:05:06.249Z,618.75
2018-08-10T09:06:06.266Z,573.75
2018-08-10T09:07:06.293Z,562.50
2018-08-10T09:08:06.315Z,545.63
2018-08-10T09:09:06.342Z,596.25
2018-08-10T09:10:06.444Z,596.25
2018-08-10T09:11:06.389Z,585.00
2018-08-10T09:12:06.414Z,579.38
2018-08-10T09:13:06.434Z,568.13
2018-08-10T09:14:06.460Z,551.25
2018-08-10T09:15:06.485Z,568.13
2018-08-10T09:16:06.507Z,590.63
2018-08-10T09:17:06.582Z,573.75
2018-08-10T09:18:06.555Z,618.75
2018-08-10T09:19:06.582Z,630.00
2018-08-10T09:20:06.616Z,669.38
2018-08-10T09:21:06.627Z,641.25
2018-08-10T09:22:06.650Z,613.13
2018-08-10T09:23:06.675Z,590.63
2018-08-10T09:24:06.701Z,551.25
2018-08-10T09:25:06.722Z,556.88
2018-08-10T09:26:06.745Z,551.25
2018-08-10T09:27:06.773Z,562.50
2018-08-10T09:28:06.797Z,613.13
2018-08-10T09:29:06.819Z,646.88
2018-08-10T09:30:06.840Z,708.75
2018-08-10T09:31:06.863Z,697.50
2018-08-10T09:32:06.890Z,613.13
2018-08-10T09:33:06.912Z,624.38
2018-08-10T09:34:06.936Z,630.00
2018-08-10T09:35:06.960Z,613.13
2018-08-10T09:36:06.986Z,601.88
2018-08-10T09:37:07.010Z,641.25
2018-08-10T09:38:07.030Z,646.88
2018-08-10T09:39:07.057Z,658.13
2018-08-10T09:40:07.083Z,652.50
2018-08-10T09:41:07.107Z,680.63
2018-08-10T09:42:07.147Z,646.88
2018-08-10T09:43:07.153Z,607.50
2018-08-10T09:44:07.215Z,573.75
2018-08-10T09:45:07.200Z,573.75
2018-08-10T09:46:07.226Z,573.75
2018-08-10T09:47:07.251Z,573.75
2018-08-10T09:48:07.278Z,556.88
2018-08-10T09:49:07.307Z,540.00
2018-08-10T09:50:07.324Z,517.50
2018-08-10T09:51:07.349Z,495.00
2018-08-10T09:52:07.406Z,438.75
2018-08-10T09:53:07.397Z,444.38
2018-08-10T09:54:07.420Z,450.00
2018-08-10T09:55:07.440Z,472.50
2018-08-10T09:56:07.471Z,472.50
2018-08-10T09:57:07.498Z,523.13
2018-08-10T09:58:07.516Z,551.25
2018-08-10T09:59:07.538Z,585.00
2018-08-10T10:00:07.562Z,568.13
2018-08-10T10:01:07.586Z,579.38
2018-08-10T10:02:07.612Z,556.88
2018-08-10T10:03:07.637Z,500.63
2018-08-10T10:04:07.665Z,495.00
2018-08-10T10:05:07.680Z,517.50
2018-08-10T10:06:07.730Z,540.00
2018-08-10T10:07:07.734Z,545.63
2018-08-10T10:08:07.754Z,573.75
2018-08-10T10:09:07.850Z,579.38
2018-08-10T10:10:07.801Z,545.63
2018-08-10T10:11:07.826Z,523.13
2018-08-10T10:12:07.848Z,506.25
2018-08-10T10:13:07.874Z,478.13
2018-08-10T10:14:07.894Z,438.75
2018-08-10T10:15:07.922Z,416.25
2018-08-10T10:16:07.944Z,388.13
2018-08-10T10:17:07.967Z,376.88
2018-08-10T10:18:07.993Z,376.88
2018-08-10T10:19:08.016Z,365.63
2018-08-10T10:20:08.043Z,371.25
2018-08-10T10:21:08.133Z,371.25
2018-08-10T10:22:08.085Z,393.75
2018-08-10T10:23:08.106Z,416.25
2018-08-10T10:24:08.133Z,410.63
2018-08-10T10:25:08.153Z,399.38
2018-08-10T10:26:08.179Z,410.63
2018-08-10T10:27:08.243Z,438.75
2018-08-10T10:28:08.226Z,483.75
2018-08-10T10:29:08.248Z,500.63
2018-08-10T10:30:08.275Z,427.50
2018-08-10T10:31:08.296Z,455.63
2018-08-10T10:32:08.321Z,433.13
2018-08-10T10:33:08.343Z,444.38
2018-08-10T10:34:08.369Z,410.63
2018-08-10T10:35:08.410Z,455.63
2018-08-10T10:36:08.414Z,438.75
2018-08-10T10:37:08.440Z,450.00
2018-08-10T10:38:08.462Z,472.50
2018-08-10T10:39:08.503Z,472.50
2018-08-10T10:40:08.509Z,450.00
2018-08-10T10:41:08.535Z,427.50
2018-08-10T10:42:08.557Z,393.75
2018-08-10T10:43:08.580Z,416.25
2018-08-10T10:44:08.615Z,399.38
2018-08-10T10:45:08.624Z,427.50
2018-08-10T10:46:08.647Z,393.75
2018-08-10T10:47:08.672Z,399.38
2018-08-10T10:48:08.698Z,371.25
2018-08-10T10:49:08.722Z,382.50
2018-08-10T10:50:08.745Z,376.88
2018-08-10T10:51:08.770Z,376.88
2018-08-10T10:52:08.788Z,421.88
2018-08-10T10:53:08.818Z,410.63
2018-08-10T10:54:08.838Z,388.13
2018-08-10T10:55:08.861Z,455.63
2018-08-10T10:56:08.893Z,472.50
2018-08-10T10:57:08.910Z,433.13
2018-08-10T10:58:08.944Z,388.13
2018-08-10T10:59:08.957Z,438.75
2018-08-10T11:00:08.978Z,455.63
2018-08-10T11:01:09.003Z,438.75
2018-08-10T11:02:09.024Z,450.00
2018-08-10T11:03:09.071Z,438.75
2018-08-10T11:04:09.072Z,427.50
2018-08-10T11:05:09.101Z,427.50
2018-08-10T11:06:09.122Z,360.00
2018-08-10T11:07:09.141Z,343.13
2018-08-10T11:08:09.171Z,354.38
2018-08-10T11:09:09.189Z,343.13
2018-08-10T11:10:09.214Z,348.75
2018-08-10T11:11:09.245Z,365.63
2018-08-10T11:12:09.263Z,365.63
2018-08-10T11:13:09.283Z,382.50
2018-08-10T11:14:09.307Z,388.13
2018-08-10T11:15:09.331Z,405.00
2018-08-10T11:16:09.354Z,478.13
2018-08-10T11:17:09.380Z,489.38
2018-08-10T11:18:09.495Z,472.50
2018-08-10T11:19:09.425Z,523.13
2018-08-10T11:20:09.458Z,517.50
2018-08-10T11:21:09.473Z,517.50
2018-08-10T11:22:09.497Z,534.38
2018-08-10T11:23:09.520Z,421.88
2018-08-10T11:24:09.613Z,388.13
2018-08-10T11:25:09.627Z,416.25
2018-08-10T11:26:09.739Z,416.25
2018-08-10T11:27:09.612Z,427.50
2018-08-10T11:28:09.639Z,416.25
2018-08-10T11:29:09.663Z,410.63
2018-08-10T11:30:09.697Z,410.63
2018-08-10T11:31:09.715Z,427.50
2018-08-10T11:32:09.799Z,433.13
2018-08-10T11:33:09.756Z,410.63
2018-08-10T11:34:09.790Z,399.38
2018-08-10T11:35:09.807Z,388.13
2018-08-10T11:36:09.870Z,393.75
2018-08-10T11:37:09.857Z,393.75
2018-08-10T11:38:09.877Z,393.75
2018-08-10T11:39:09.901Z,393.75
2018-08-10T11:40:09.928Z,393.75
2018-08-10T11:41:09.948Z,388.13
2018-08-10T11:42:09.970Z,382.50
2018-08-10T11:43:09.995Z,371.25
2018-08-10T11:44:10.023Z,371.25
2018-08-10T11:45:10.066Z,376.88
2018-08-10T11:46:10.073Z,393.75
2018-08-10T11:47:10.091Z,399.38
2018-08-10T11:48:10.119Z,388.13
2018-08-10T11:49:10.141Z,388.13
2018-08-10T11:50:10.251Z,399.38
2018-08-10T11:51:10.195Z,410.63
2018-08-10T11:52:10.209Z,410.63
2018-08-10T11:53:10.240Z,410.63
2018-08-10T11:54:10.263Z,416.25
2018-08-10T11:55:10.283Z,416.25
2018-08-10T11:56:10.305Z,416.25
2018-08-10T11:57:10.327Z,410.63
2018-08-10T11:58:10.353Z,416.25
2018-08-10T11:59:10.380Z,421.88
2018-08-10T12:00:10.403Z,416.25
2018-08-10T12:01:10.423Z,405.00
2018-08-10T12:02:10.451Z,405.00
2018-08-10T12:03:10.481Z,427.50
2018-08-10T12:04:10.497Z,433.13
2018-08-10T12:05:10.520Z,438.75
2018-08-10T12:06:10.558Z,444.38
2018-08-10T12:07:10.569Z,444.38
2018-08-10T12:08:10.594Z,483.75
2018-08-10T12:09:10.619Z,466.88
2018-08-10T12:10:10.642Z,438.75
2018-08-10T12:11:10.665Z,444.38
2018-08-10T12:12:10.692Z,450.00
2018-08-10T12:13:10.725Z,466.88
2018-08-10T12:14:10.737Z,478.13
2018-08-10T12:15:10.763Z,478.13
2018-08-10T12:16:10.789Z,506.25
2018-08-10T12:17:10.810Z,523.13
2018-08-10T12:18:10.837Z,506.25
2018-08-10T12:19:10.925Z,466.88
2018-08-10T12:20:10.886Z,444.38
2018-08-10T12:21:10.911Z,450.00
2018-08-10T12:22:10.931Z,489.38
2018-08-10T12:23:10.962Z,517.50
2018-08-10T12:24:10.980Z,495.00
2018-08-10T12:25:11.010Z,483.75
2018-08-10T12:26:11.030Z,466.88
2018-08-10T12:27:11.055Z,444.38
2018-08-10T12:28:11.083Z,438.75
2018-08-10T12:29:11.104Z,365.63
2018-08-10T12:30:11.183Z,365.63
2018-08-10T12:31:11.152Z,343.13
2018-08-10T12:32:11.178Z,405.00
2018-08-10T12:33:11.201Z,410.63
2018-08-10T12:34:11.228Z,421.88
2018-08-10T12:35:11.304Z,489.38
2018-08-10T12:36:11.275Z,523.13
2018-08-10T12:37:11.301Z,534.38
2018-08-10T12:38:11.321Z,534.38
2018-08-10T12:39:11.356Z,534.38
2018-08-10T12:40:11.372Z,534.38
2018-08-10T12:41:11.394Z,540.00
2018-08-10T12:42:11.416Z,500.63
2018-08-10T12:43:11.447Z,528.75